sensor_id;sensor_type;location;lat;lon;timestamp;temperature;humidity
13049;DHT22;6591;51.446;5.404;2023-06-22T00:00:20;21.50;81.80
13049;DHT22;6591;51.446;5.404;2023-06-22T00:02:48;21.60;82.00
13049;DHT22;6591;51.446;5.404;2023-06-22T00:05:15;21.80;82.50
13049;DHT22;6591;51.446;5.404;2023-06-22T00:07:42;22.20;82.90
13049;DHT22;6591;51.446;5.404;2023-06-22T00:10:09;21.90;82.50
13049;DHT22;6591;51.446;5.404;2023-06-22T00:12:37;21.50;82.40
13049;DHT22;6591;51.446;5.404;2023-06-22T00:15:05;21.50;82.50
13049;DHT22;6591;51.446;5.404;2023-06-22T00:17:32;21.50;82.80
13049;DHT22;6591;51.446;5.404;2023-06-22T00:19:59;21.90;83.00
13049;DHT22;6591;51.446;5.404;2023-06-22T00:22:27;21.40;82.80
13049;DHT22;6591;51.446;5.404;2023-06-22T00:24:56;21.40;83.30
13049;DHT22;6591;51.446;5.404;2023-06-22T00:27:23;21.40;83.40
13049;DHT22;6591;51.446;5.404;2023-06-22T00:29:51;21.80;83.90
13049;DHT22;6591;51.446;5.404;2023-06-22T00:32:18;21.30;83.90
13049;DHT22;6591;51.446;5.404;2023-06-22T00:34:47;21.30;84.10
13049;DHT22;6591;51.446;5.404;2023-06-22T00:37:14;21.20;84.30
13049;DHT22;6591;51.446;5.404;2023-06-22T00:39:43;21.60;84.70
13049;DHT22;6591;51.446;5.404;2023-06-22T00:42:10;21.10;85.00
13049;DHT22;6591;51.446;5.404;2023-06-22T00:44:38;21.10;85.20
13049;DHT22;6591;51.446;5.404;2023-06-22T00:47:05;20.90;85.90
13049;DHT22;6591;51.446;5.404;2023-06-22T00:49:33;22.30;87.00
13049;DHT22;6591;51.446;5.404;2023-06-22T00:52:01;20.90;86.60
13049;DHT22;6591;51.446;5.404;2023-06-22T00:54:30;20.90;87.30
13049;DHT22;6591;51.446;5.404;2023-06-22T00:56:57;20.90;87.80
13049;DHT22;6591;51.446;5.404;2023-06-22T00:59:27;20.80;88.20
13049;DHT22;6591;51.446;5.404;2023-06-22T01:01:55;20.80;88.40
13049;DHT22;6591;51.446;5.404;2023-06-22T01:04:26;20.70;88.50
13049;DHT22;6591;51.446;5.404;2023-06-22T01:07:22;20.70;89.70
13049;DHT22;6591;51.446;5.404;2023-06-22T01:12:42;20.60;90.60
13049;DHT22;6591;51.446;5.404;2023-06-22T01:15:21;20.60;90.70
13049;DHT22;6591;51.446;5.404;2023-06-22T01:17:55;20.50;90.80
13049;DHT22;6591;51.446;5.404;2023-06-22T01:20:26;20.50;90.80
13049;DHT22;6591;51.446;5.404;2023-06-22T01:23:17;20.50;91.10
13049;DHT22;6591;51.446;5.404;2023-06-22T01:31:17;20.50;92.50
13049;DHT22;6591;51.446;5.404;2023-06-22T01:33:51;20.60;92.60
13049;DHT22;6591;51.446;5.404;2023-06-22T01:36:22;20.70;92.80
13049;DHT22;6591;51.446;5.404;2023-06-22T01:38:52;20.60;92.60
13049;DHT22;6591;51.446;5.404;2023-06-22T01:41:21;21.30;93.00
13049;DHT22;6591;51.446;5.404;2023-06-22T01:43:53;20.70;92.90
13049;DHT22;6591;51.446;5.404;2023-06-22T01:46:24;20.60;93.10
13049;DHT22;6591;51.446;5.404;2023-06-22T01:48:53;20.60;93.10
13049;DHT22;6591;51.446;5.404;2023-06-22T01:51:21;20.70;93.40
13049;DHT22;6591;51.446;5.404;2023-06-22T01:53:48;20.60;93.50
13049;DHT22;6591;51.446;5.404;2023-06-22T01:56:19;20.60;93.60
13049;DHT22;6591;51.446;5.404;2023-06-22T01:58:52;20.60;93.80
13049;DHT22;6591;51.446;5.404;2023-06-22T02:01:41;22.30;94.50
13049;DHT22;6591;51.446;5.404;2023-06-22T02:04:21;20.70;94.00
13049;DHT22;6591;51.446;5.404;2023-06-22T02:06:56;20.70;94.60
13049;DHT22;6591;51.446;5.404;2023-06-22T02:09:29;20.70;94.30
13049;DHT22;6591;51.446;5.404;2023-06-22T02:12:00;20.70;94.70
13049;DHT22;6591;51.446;5.404;2023-06-22T02:14:29;20.70;94.60
13049;DHT22;6591;51.446;5.404;2023-06-22T02:16:57;20.70;94.70
13049;DHT22;6591;51.446;5.404;2023-06-22T02:19:27;21.40;95.00
13049;DHT22;6591;51.446;5.404;2023-06-22T02:21:55;21.40;95.10
13049;DHT22;6591;51.446;5.404;2023-06-22T02:24:22;22.20;95.50
13049;DHT22;6591;51.446;5.404;2023-06-22T02:26:50;20.60;95.10
13049;DHT22;6591;51.446;5.404;2023-06-22T02:29:17;20.60;95.30
13049;DHT22;6591;51.446;5.404;2023-06-22T02:31:44;20.60;95.20
13049;DHT22;6591;51.446;5.404;2023-06-22T02:34:11;20.70;95.50
13049;DHT22;6591;51.446;5.404;2023-06-22T02:36:46;20.50;95.70
13049;DHT22;6591;51.446;5.404;2023-06-22T02:39:22;20.50;95.70
13049;DHT22;6591;51.446;5.404;2023-06-22T02:41:55;20.70;96.00
13049;DHT22;6591;51.446;5.404;2023-06-22T02:44:22;21.20;96.20
13049;DHT22;6591;51.446;5.404;2023-06-22T02:46:49;21.60;96.20
13049;DHT22;6591;51.446;5.404;2023-06-22T02:49:17;20.40;96.00
13049;DHT22;6591;51.446;5.404;2023-06-22T02:51:47;20.40;96.10
13049;DHT22;6591;51.446;5.404;2023-06-22T02:54:18;20.40;96.30
13049;DHT22;6591;51.446;5.404;2023-06-22T02:56:49;20.30;96.30
13049;DHT22;6591;51.446;5.404;2023-06-22T02:59:18;20.30;96.60
13049;DHT22;6591;51.446;5.404;2023-06-22T03:01:52;20.70;96.70
13049;DHT22;6591;51.446;5.404;2023-06-22T03:04:26;20.20;96.70
13049;DHT22;6591;51.446;5.404;2023-06-22T03:06:54;20.20;96.80
13049;DHT22;6591;51.446;5.404;2023-06-22T03:09:21;20.20;96.90
13049;DHT22;6591;51.446;5.404;2023-06-22T03:11:48;21.10;97.50
13049;DHT22;6591;51.446;5.404;2023-06-22T03:14:16;20.10;97.20
13049;DHT22;6591;51.446;5.404;2023-06-22T03:16:43;20.10;97.30
13049;DHT22;6591;51.446;5.404;2023-06-22T03:19:11;20.80;97.70
13049;DHT22;6591;51.446;5.404;2023-06-22T03:21:38;20.00;97.60
13049;DHT22;6591;51.446;5.404;2023-06-22T03:24:06;20.00;97.70
13049;DHT22;6591;51.446;5.404;2023-06-22T03:26:34;20.00;97.90
13049;DHT22;6591;51.446;5.404;2023-06-22T03:29:01;19.90;98.00
13049;DHT22;6591;51.446;5.404;2023-06-22T03:31:30;19.90;98.00
13049;DHT22;6591;51.446;5.404;2023-06-22T03:33:57;19.90;98.60
13049;DHT22;6591;51.446;5.404;2023-06-22T03:36:24;21.20;98.90
13049;DHT22;6591;51.446;5.404;2023-06-22T03:38:52;19.80;98.60
13049;DHT22;6591;51.446;5.404;2023-06-22T03:41:20;19.80;98.70
13049;DHT22;6591;51.446;5.404;2023-06-22T03:43:49;19.90;98.70
13049;DHT22;6591;51.446;5.404;2023-06-22T03:46:17;19.80;99.20
13049;DHT22;6591;51.446;5.404;2023-06-22T03:48:44;19.80;99.50
13049;DHT22;6591;51.446;5.404;2023-06-22T03:51:11;19.90;99.40
13049;DHT22;6591;51.446;5.404;2023-06-22T03:53:39;19.70;99.30
13049;DHT22;6591;51.446;5.404;2023-06-22T03:56:06;19.90;99.30
13049;DHT22;6591;51.446;5.404;2023-06-22T03:58:33;19.70;99.40
13049;DHT22;6591;51.446;5.404;2023-06-22T04:01:03;19.80;99.60
13049;DHT22;6591;51.446;5.404;2023-06-22T04:03:30;19.70;99.60
13049;DHT22;6591;51.446;5.404;2023-06-22T04:05:57;19.70;99.70
13049;DHT22;6591;51.446;5.404;2023-06-22T04:08:24;19.70;99.70
13049;DHT22;6591;51.446;5.404;2023-06-22T04:10:51;20.10;99.90
13049;DHT22;6591;51.446;5.404;2023-06-22T04:13:18;19.70;99.90
13049;DHT22;6591;51.446;5.404;2023-06-22T04:15:47;19.80;99.90
13049;DHT22;6591;51.446;5.404;2023-06-22T04:18:15;19.80;99.90
13049;DHT22;6591;51.446;5.404;2023-06-22T04:20:42;19.90;99.90
13049;DHT22;6591;51.446;5.404;2023-06-22T04:23:13;19.90;99.90
13049;DHT22;6591;51.446;5.404;2023-06-22T04:25:40;20.00;99.90
13049;DHT22;6591;51.446;5.404;2023-06-22T04:28:07;20.00;99.90
13049;DHT22;6591;51.446;5.404;2023-06-22T04:30:39;20.10;99.90
13049;DHT22;6591;51.446;5.404;2023-06-22T04:33:14;20.10;99.90
13049;DHT22;6591;51.446;5.404;2023-06-22T04:35:45;20.20;99.90
13049;DHT22;6591;51.446;5.404;2023-06-22T04:38:13;20.30;99.90
13049;DHT22;6591;51.446;5.404;2023-06-22T04:40:40;20.40;99.90
13049;DHT22;6591;51.446;5.404;2023-06-22T04:43:07;20.40;99.90
13049;DHT22;6591;51.446;5.404;2023-06-22T04:45:36;20.50;99.90
13049;DHT22;6591;51.446;5.404;2023-06-22T04:48:05;20.60;99.90
13049;DHT22;6591;51.446;5.404;2023-06-22T04:50:32;20.70;99.90
13049;DHT22;6591;51.446;5.404;2023-06-22T04:52:59;21.20;99.90
13049;DHT22;6591;51.446;5.404;2023-06-22T04:55:27;21.00;99.90
13049;DHT22;6591;51.446;5.404;2023-06-22T04:57:54;21.00;99.90
13049;DHT22;6591;51.446;5.404;2023-06-22T05:00:21;21.10;99.90
13049;DHT22;6591;51.446;5.404;2023-06-22T05:02:50;21.20;99.90
13049;DHT22;6591;51.446;5.404;2023-06-22T05:05:17;21.30;99.80
13049;DHT22;6591;51.446;5.404;2023-06-22T05:07:46;21.40;99.70
13049;DHT22;6591;51.446;5.404;2023-06-22T05:10:17;21.50;99.70
13049;DHT22;6591;51.446;5.404;2023-06-22T05:12:46;21.60;99.50
13049;DHT22;6591;51.446;5.404;2023-06-22T05:15:13;21.70;99.50
13049;DHT22;6591;51.446;5.404;2023-06-22T05:17:41;21.70;99.30
13049;DHT22;6591;51.446;5.404;2023-06-22T05:20:12;22.80;99.50
13049;DHT22;6591;51.446;5.404;2023-06-22T05:22:40;21.90;99.30
13049;DHT22;6591;51.446;5.404;2023-06-22T05:25:09;21.90;98.80
13049;DHT22;6591;51.446;5.404;2023-06-22T05:27:37;22.00;98.80
13049;DHT22;6591;51.446;5.404;2023-06-22T05:30:07;22.00;98.60
13049;DHT22;6591;51.446;5.404;2023-06-22T05:32:35;22.00;98.60
13049;DHT22;6591;51.446;5.404;2023-06-22T05:35:04;22.00;98.50
13049;DHT22;6591;51.446;5.404;2023-06-22T05:37:31;20.50;98.10
13049;DHT22;6591;51.446;5.404;2023-06-22T05:39:58;22.00;98.50
13049;DHT22;6591;51.446;5.404;2023-06-22T05:42:25;22.00;98.50
13049;DHT22;6591;51.446;5.404;2023-06-22T05:44:53;22.00;98.60
13049;DHT22;6591;51.446;5.404;2023-06-22T05:47:20;22.00;98.60
13049;DHT22;6591;51.446;5.404;2023-06-22T05:49:47;22.10;98.80
13049;DHT22;6591;51.446;5.404;2023-06-22T05:52:14;22.10;98.80
13049;DHT22;6591;51.446;5.404;2023-06-22T05:54:41;22.20;98.80
13049;DHT22;6591;51.446;5.404;2023-06-22T05:57:10;22.30;98.90
13049;DHT22;6591;51.446;5.404;2023-06-22T05:59:37;22.40;98.70
13049;DHT22;6591;51.446;5.404;2023-06-22T06:02:04;22.60;98.70
13049;DHT22;6591;51.446;5.404;2023-06-22T06:04:32;22.70;98.70
13049;DHT22;6591;51.446;5.404;2023-06-22T06:06:59;22.90;98.60
13049;DHT22;6591;51.446;5.404;2023-06-22T06:09:27;23.00;98.40
13049;DHT22;6591;51.446;5.404;2023-06-22T06:11:54;23.10;98.30
13049;DHT22;6591;51.446;5.404;2023-06-22T06:14:21;22.00;97.80
13049;DHT22;6591;51.446;5.404;2023-06-22T06:16:49;23.30;98.00
13049;DHT22;6591;51.446;5.404;2023-06-22T06:19:16;23.40;98.00
13049;DHT22;6591;51.446;5.404;2023-06-22T06:21:43;23.40;97.70
13049;DHT22;6591;51.446;5.404;2023-06-22T06:24:10;23.70;97.70
13049;DHT22;6591;51.446;5.404;2023-06-22T06:26:37;23.60;97.90
13049;DHT22;6591;51.446;5.404;2023-06-22T06:29:06;23.60;97.40
13049;DHT22;6591;51.446;5.404;2023-06-22T06:31:33;23.70;97.30
13049;DHT22;6591;51.446;5.404;2023-06-22T06:34:00;23.80;97.50
13049;DHT22;6591;51.446;5.404;2023-06-22T06:36:27;23.80;97.40
13049;DHT22;6591;51.446;5.404;2023-06-22T06:38:54;24.00;97.30
13049;DHT22;6591;51.446;5.404;2023-06-22T06:41:22;24.10;97.20
13049;DHT22;6591;51.446;5.404;2023-06-22T06:43:50;24.20;97.00
13049;DHT22;6591;51.446;5.404;2023-06-22T06:46:17;24.20;96.80
13049;DHT22;6591;51.446;5.404;2023-06-22T06:48:46;24.30;96.70
13049;DHT22;6591;51.446;5.404;2023-06-22T06:51:13;24.30;96.60
13049;DHT22;6591;51.446;5.404;2023-06-22T06:53:40;24.40;96.40
13049;DHT22;6591;51.446;5.404;2023-06-22T06:56:08;24.40;96.30
13049;DHT22;6591;51.446;5.404;2023-06-22T06:58:40;24.40;96.20
13049;DHT22;6591;51.446;5.404;2023-06-22T07:01:09;24.40;96.10
13049;DHT22;6591;51.446;5.404;2023-06-22T07:03:36;24.40;96.00
13049;DHT22;6591;51.446;5.404;2023-06-22T07:06:03;24.40;95.90
13049;DHT22;6591;51.446;5.404;2023-06-22T07:08:31;24.40;96.00
13049;DHT22;6591;51.446;5.404;2023-06-22T07:10:58;24.40;96.00
13049;DHT22;6591;51.446;5.404;2023-06-22T07:13:25;24.40;96.00
13049;DHT22;6591;51.446;5.404;2023-06-22T07:15:52;24.50;96.20
13049;DHT22;6591;51.446;5.404;2023-06-22T07:18:19;24.50;96.50
13049;DHT22;6591;51.446;5.404;2023-06-22T07:20:46;24.50;96.50
13049;DHT22;6591;51.446;5.404;2023-06-22T07:23:14;24.40;96.30
13049;DHT22;6591;51.446;5.404;2023-06-22T07:25:41;24.50;96.20
13049;DHT22;6591;51.446;5.404;2023-06-22T07:28:08;24.30;96.10
13049;DHT22;6591;51.446;5.404;2023-06-22T07:30:36;24.20;96.20
13049;DHT22;6591;51.446;5.404;2023-06-22T07:33:03;24.10;96.30
13049;DHT22;6591;51.446;5.404;2023-06-22T07:35:34;23.90;96.60
13049;DHT22;6591;51.446;5.404;2023-06-22T07:38:01;23.80;96.80
13049;DHT22;6591;51.446;5.404;2023-06-22T07:40:31;23.70;97.10
13049;DHT22;6591;51.446;5.404;2023-06-22T07:42:59;23.60;97.30
13049;DHT22;6591;51.446;5.404;2023-06-22T07:45:26;23.60;97.50
13049;DHT22;6591;51.446;5.404;2023-06-22T07:47:53;23.60;97.70
13049;DHT22;6591;51.446;5.404;2023-06-22T07:50:20;23.60;98.00
13049;DHT22;6591;51.446;5.404;2023-06-22T07:52:47;24.00;98.30
13049;DHT22;6591;51.446;5.404;2023-06-22T07:55:15;23.70;98.30
13049;DHT22;6591;51.446;5.404;2023-06-22T07:57:42;23.80;98.30
13049;DHT22;6591;51.446;5.404;2023-06-22T08:00:10;23.90;98.40
13049;DHT22;6591;51.446;5.404;2023-06-22T08:02:44;24.00;98.40
13049;DHT22;6591;51.446;5.404;2023-06-22T08:05:13;24.20;98.30
13049;DHT22;6591;51.446;5.404;2023-06-22T08:07:48;24.30;98.30
13049;DHT22;6591;51.446;5.404;2023-06-22T08:10:17;24.50;98.10
13049;DHT22;6591;51.446;5.404;2023-06-22T08:12:44;24.60;97.80
13049;DHT22;6591;51.446;5.404;2023-06-22T08:15:11;24.80;97.50
13049;DHT22;6591;51.446;5.404;2023-06-22T08:17:38;24.90;97.20
13049;DHT22;6591;51.446;5.404;2023-06-22T08:20:07;25.00;96.90
13049;DHT22;6591;51.446;5.404;2023-06-22T08:22:40;25.20;96.40
13049;DHT22;6591;51.446;5.404;2023-06-22T08:25:09;25.20;96.10
13049;DHT22;6591;51.446;5.404;2023-06-22T08:27:37;25.30;96.00
13049;DHT22;6591;51.446;5.404;2023-06-22T08:30:04;25.40;95.60
13049;DHT22;6591;51.446;5.404;2023-06-22T08:32:33;25.40;95.10
13049;DHT22;6591;51.446;5.404;2023-06-22T08:35:00;25.40;95.10
13049;DHT22;6591;51.446;5.404;2023-06-22T08:37:28;25.40;95.20
13049;DHT22;6591;51.446;5.404;2023-06-22T08:40:04;25.40;94.70
13049;DHT22;6591;51.446;5.404;2023-06-22T08:42:32;25.40;94.70
13049;DHT22;6591;51.446;5.404;2023-06-22T08:45:00;25.40;94.60
13049;DHT22;6591;51.446;5.404;2023-06-22T08:47:28;25.30;94.50
13049;DHT22;6591;51.446;5.404;2023-06-22T08:49:55;25.70;94.60
13049;DHT22;6591;51.446;5.404;2023-06-22T08:52:24;25.30;94.50
13049;DHT22;6591;51.446;5.404;2023-06-22T08:54:51;25.20;94.50
13049;DHT22;6591;51.446;5.404;2023-06-22T08:57:18;25.20;94.50
13049;DHT22;6591;51.446;5.404;2023-06-22T08:59:45;25.20;94.60
13049;DHT22;6591;51.446;5.404;2023-06-22T09:02:12;25.20;94.60
13049;DHT22;6591;51.446;5.404;2023-06-22T09:04:40;25.20;94.70
13049;DHT22;6591;51.446;5.404;2023-06-22T09:07:08;25.20;94.80
13049;DHT22;6591;51.446;5.404;2023-06-22T09:09:35;25.20;94.60
13049;DHT22;6591;51.446;5.404;2023-06-22T09:12:02;25.30;94.70
13049;DHT22;6591;51.446;5.404;2023-06-22T09:14:30;25.30;94.70
13049;DHT22;6591;51.446;5.404;2023-06-22T09:16:57;25.40;94.60
13049;DHT22;6591;51.446;5.404;2023-06-22T09:19:24;25.40;94.50
13049;DHT22;6591;51.446;5.404;2023-06-22T09:21:51;25.60;94.40
13049;DHT22;6591;51.446;5.404;2023-06-22T09:24:18;25.60;94.30
13049;DHT22;6591;51.446;5.404;2023-06-22T09:26:45;25.80;94.20
13049;DHT22;6591;51.446;5.404;2023-06-22T09:29:12;25.90;94.10
13049;DHT22;6591;51.446;5.404;2023-06-22T09:31:39;26.00;93.50
13049;DHT22;6591;51.446;5.404;2023-06-22T09:34:06;26.20;93.40
13049;DHT22;6591;51.446;5.404;2023-06-22T09:36:33;26.30;92.90
13049;DHT22;6591;51.446;5.404;2023-06-22T09:39:02;26.40;92.70
13049;DHT22;6591;51.446;5.404;2023-06-22T09:41:33;26.50;92.50
13049;DHT22;6591;51.446;5.404;2023-06-22T09:43:59;26.60;92.40
13049;DHT22;6591;51.446;5.404;2023-06-22T09:46:26;26.70;92.40
13049;DHT22;6591;51.446;5.404;2023-06-22T09:48:54;26.70;91.90
13049;DHT22;6591;51.446;5.404;2023-06-22T09:51:22;26.70;91.60
13049;DHT22;6591;51.446;5.404;2023-06-22T09:53:51;27.10;92.20
13049;DHT22;6591;51.446;5.404;2023-06-22T09:56:20;26.80;91.60
13049;DHT22;6591;51.446;5.404;2023-06-22T09:58:47;26.70;91.40
13049;DHT22;6591;51.446;5.404;2023-06-22T10:01:18;26.70;91.30
13049;DHT22;6591;51.446;5.404;2023-06-22T10:03:47;26.70;91.20
13049;DHT22;6591;51.446;5.404;2023-06-22T10:06:15;26.70;91.20
13049;DHT22;6591;51.446;5.404;2023-06-22T10:08:42;26.80;91.10
13049;DHT22;6591;51.446;5.404;2023-06-22T10:11:09;26.60;90.60
13049;DHT22;6591;51.446;5.404;2023-06-22T10:13:36;26.70;90.90
13049;DHT22;6591;51.446;5.404;2023-06-22T10:16:03;26.50;91.00
13049;DHT22;6591;51.446;5.404;2023-06-22T10:18:30;26.40;91.10
13049;DHT22;6591;51.446;5.404;2023-06-22T10:20:57;26.30;91.40
13049;DHT22;6591;51.446;5.404;2023-06-22T10:23:24;26.10;91.50
13049;DHT22;6591;51.446;5.404;2023-06-22T10:25:51;25.90;91.60
13049;DHT22;6591;51.446;5.404;2023-06-22T10:28:19;25.70;91.90
13049;DHT22;6591;51.446;5.404;2023-06-22T10:30:46;25.60;92.30
13049;DHT22;6591;51.446;5.404;2023-06-22T10:33:13;25.50;92.50
13049;DHT22;6591;51.446;5.404;2023-06-22T10:35:40;25.30;92.90
13049;DHT22;6591;51.446;5.404;2023-06-22T10:38:07;25.20;93.00
13049;DHT22;6591;51.446;5.404;2023-06-22T10:40:35;25.10;93.40
13049;DHT22;6591;51.446;5.404;2023-06-22T10:43:02;24.90;93.50
13049;DHT22;6591;51.446;5.404;2023-06-22T10:45:29;24.80;93.70
13049;DHT22;6591;51.446;5.404;2023-06-22T10:47:57;24.60;94.00
13049;DHT22;6591;51.446;5.404;2023-06-22T10:50:25;24.50;94.30
13049;DHT22;6591;51.446;5.404;2023-06-22T10:52:53;24.40;94.70
13049;DHT22;6591;51.446;5.404;2023-06-22T10:55:24;24.30;95.10
13049;DHT22;6591;51.446;5.404;2023-06-22T10:57:51;24.00;96.00
13049;DHT22;6591;51.446;5.404;2023-06-22T11:00:19;23.90;95.90
13049;DHT22;6591;51.446;5.404;2023-06-22T11:02:46;23.70;97.00
13049;DHT22;6591;51.446;5.404;2023-06-22T11:05:14;23.60;97.30
13049;DHT22;6591;51.446;5.404;2023-06-22T11:07:44;23.50;98.00
13049;DHT22;6591;51.446;5.404;2023-06-22T11:10:13;23.30;99.00
13049;DHT22;6591;51.446;5.404;2023-06-22T11:12:40;23.20;99.20
13049;DHT22;6591;51.446;5.404;2023-06-22T11:15:09;23.70;99.90
13049;DHT22;6591;51.446;5.404;2023-06-22T11:17:36;23.00;99.90
13049;DHT22;6591;51.446;5.404;2023-06-22T11:20:04;22.80;99.90
13049;DHT22;6591;51.446;5.404;2023-06-22T11:22:39;22.70;99.90
13049;DHT22;6591;51.446;5.404;2023-06-22T11:25:08;22.70;99.90
13049;DHT22;6591;51.446;5.404;2023-06-22T11:27:35;22.60;99.90
13049;DHT22;6591;51.446;5.404;2023-06-22T11:30:04;22.50;99.90
13049;DHT22;6591;51.446;5.404;2023-06-22T11:32:32;22.50;99.90
13049;DHT22;6591;51.446;5.404;2023-06-22T11:35:01;22.40;99.90
13049;DHT22;6591;51.446;5.404;2023-06-22T11:37:28;22.30;99.90
13049;DHT22;6591;51.446;5.404;2023-06-22T11:39:55;22.20;99.90
13049;DHT22;6591;51.446;5.404;2023-06-22T11:42:32;22.10;99.90
13049;DHT22;6591;51.446;5.404;2023-06-22T11:44:59;22.50;99.90
13049;DHT22;6591;51.446;5.404;2023-06-22T11:47:26;21.90;99.90
13049;DHT22;6591;51.446;5.404;2023-06-22T11:49:53;21.90;99.90
13049;DHT22;6591;51.446;5.404;2023-06-22T11:52:21;21.80;99.90
13049;DHT22;6591;51.446;5.404;2023-06-22T11:54:48;22.20;99.90
13049;DHT22;6591;51.446;5.404;2023-06-22T11:57:15;21.60;99.90
13049;DHT22;6591;51.446;5.404;2023-06-22T11:59:42;21.60;99.90
13049;DHT22;6591;51.446;5.404;2023-06-22T12:02:09;21.60;99.90
13049;DHT22;6591;51.446;5.404;2023-06-22T12:04:37;21.60;99.90
13049;DHT22;6591;51.446;5.404;2023-06-22T12:07:04;23.20;99.90
13049;DHT22;6591;51.446;5.404;2023-06-22T12:09:31;21.50;99.90
13049;DHT22;6591;51.446;5.404;2023-06-22T12:11:58;21.50;99.90
13049;DHT22;6591;51.446;5.404;2023-06-22T12:14:25;21.50;99.90
13049;DHT22;6591;51.446;5.404;2023-06-22T12:16:52;21.60;99.90
13049;DHT22;6591;51.446;5.404;2023-06-22T12:19:20;21.60;99.90
13049;DHT22;6591;51.446;5.404;2023-06-22T12:21:47;21.60;99.90
13049;DHT22;6591;51.446;5.404;2023-06-22T12:24:14;21.70;99.90
13049;DHT22;6591;51.446;5.404;2023-06-22T12:26:41;21.90;99.90
13049;DHT22;6591;51.446;5.404;2023-06-22T12:29:09;21.70;99.90
13049;DHT22;6591;51.446;5.404;2023-06-22T12:31:36;21.70;99.90
13049;DHT22;6591;51.446;5.404;2023-06-22T12:34:05;23.00;99.90
13049;DHT22;6591;51.446;5.404;2023-06-22T12:36:32;22.60;99.90
13049;DHT22;6591;51.446;5.404;2023-06-22T12:38:59;21.70;99.90
13049;DHT22;6591;51.446;5.404;2023-06-22T12:41:27;21.70;99.90
13049;DHT22;6591;51.446;5.404;2023-06-22T12:43:54;21.70;99.90
13049;DHT22;6591;51.446;5.404;2023-06-22T12:46:21;21.60;99.90
13049;DHT22;6591;51.446;5.404;2023-06-22T12:48:48;21.60;99.90
13049;DHT22;6591;51.446;5.404;2023-06-22T12:51:22;22.40;99.90
13049;DHT22;6591;51.446;5.404;2023-06-22T12:53:50;21.60;99.90
13049;DHT22;6591;51.446;5.404;2023-06-22T12:56:17;21.50;99.90
13049;DHT22;6591;51.446;5.404;2023-06-22T12:58:44;21.50;99.90
13049;DHT22;6591;51.446;5.404;2023-06-22T13:01:11;21.50;99.90
13049;DHT22;6591;51.446;5.404;2023-06-22T13:03:39;21.40;99.90
13049;DHT22;6591;51.446;5.404;2023-06-22T13:06:07;20.40;99.90
13049;DHT22;6591;51.446;5.404;2023-06-22T13:08:34;21.30;99.90
13049;DHT22;6591;51.446;5.404;2023-06-22T13:11:21;21.30;99.90
13049;DHT22;6591;51.446;5.404;2023-06-22T13:13:48;21.70;99.90
13049;DHT22;6591;51.446;5.404;2023-06-22T13:16:15;21.20;99.90
13049;DHT22;6591;51.446;5.404;2023-06-22T13:18:42;21.20;99.90
13049;DHT22;6591;51.446;5.404;2023-06-22T13:21:09;21.20;99.90
13049;DHT22;6591;51.446;5.404;2023-06-22T13:23:37;21.10;99.90
13049;DHT22;6591;51.446;5.404;2023-06-22T13:26:04;21.20;99.90
13049;DHT22;6591;51.446;5.404;2023-06-22T13:28:31;22.40;99.90
13049;DHT22;6591;51.446;5.404;2023-06-22T13:30:58;19.90;99.90
13049;DHT22;6591;51.446;5.404;2023-06-22T13:33:26;21.00;99.90
13049;DHT22;6591;51.446;5.404;2023-06-22T13:35:53;21.00;99.90
13049;DHT22;6591;51.446;5.404;2023-06-22T13:38:20;21.00;99.90
13049;DHT22;6591;51.446;5.404;2023-06-22T13:40:48;21.00;99.90
13049;DHT22;6591;51.446;5.404;2023-06-22T13:43:16;20.90;99.90
13049;DHT22;6591;51.446;5.404;2023-06-22T13:45:44;21.00;99.90
13049;DHT22;6591;51.446;5.404;2023-06-22T13:48:11;21.00;99.90
13049;DHT22;6591;51.446;5.404;2023-06-22T13:50:38;20.90;99.90
13049;DHT22;6591;51.446;5.404;2023-06-22T13:53:05;21.00;99.90
13049;DHT22;6591;51.446;5.404;2023-06-22T13:55:32;21.00;99.90
13049;DHT22;6591;51.446;5.404;2023-06-22T13:57:59;20.80;99.90
13049;DHT22;6591;51.446;5.404;2023-06-22T14:00:27;20.80;99.90
13049;DHT22;6591;51.446;5.404;2023-06-22T14:02:55;20.80;99.90
13049;DHT22;6591;51.446;5.404;2023-06-22T14:05:22;20.90;99.90
13049;DHT22;6591;51.446;5.404;2023-06-22T14:07:49;20.70;99.90
13049;DHT22;6591;51.446;5.404;2023-06-22T14:10:16;20.70;99.90
13049;DHT22;6591;51.446;5.404;2023-06-22T14:12:43;20.70;99.90
13049;DHT22;6591;51.446;5.404;2023-06-22T14:15:11;20.60;99.90
13049;DHT22;6591;51.446;5.404;2023-06-22T14:17:38;20.80;99.90
13049;DHT22;6591;51.446;5.404;2023-06-22T14:20:06;20.70;99.90
13049;DHT22;6591;51.446;5.404;2023-06-22T14:22:35;20.60;99.90
13049;DHT22;6591;51.446;5.404;2023-06-22T14:25:04;20.50;99.90
13049;DHT22;6591;51.446;5.404;2023-06-22T14:27:32;20.50;99.90
13049;DHT22;6591;51.446;5.404;2023-06-22T14:29:59;20.50;99.90
13049;DHT22;6591;51.446;5.404;2023-06-22T14:32:28;21.40;99.90
13049;DHT22;6591;51.446;5.404;2023-06-22T14:34:57;20.50;99.90
13049;DHT22;6591;51.446;5.404;2023-06-22T14:37:24;19.00;99.90
13049;DHT22;6591;51.446;5.404;2023-06-22T14:39:51;20.50;99.90
13049;DHT22;6591;51.446;5.404;2023-06-22T14:42:19;20.40;99.90
13049;DHT22;6591;51.446;5.404;2023-06-22T14:44:46;20.30;99.90
13049;DHT22;6591;51.446;5.404;2023-06-22T14:47:16;20.30;99.90
13049;DHT22;6591;51.446;5.404;2023-06-22T14:50:44;20.40;99.90
13049;DHT22;6591;51.446;5.404;2023-06-22T14:53:12;20.70;99.90
13049;DHT22;6591;51.446;5.404;2023-06-22T14:55:39;20.40;99.90
13049;DHT22;6591;51.446;5.404;2023-06-22T14:58:07;20.40;99.90
13049;DHT22;6591;51.446;5.404;2023-06-22T15:00:40;20.40;99.90
13049;DHT22;6591;51.446;5.404;2023-06-22T15:03:10;20.40;99.90
13049;DHT22;6591;51.446;5.404;2023-06-22T15:05:45;20.60;99.90
13049;DHT22;6591;51.446;5.404;2023-06-22T15:08:12;20.50;99.90
13049;DHT22;6591;51.446;5.404;2023-06-22T15:10:39;20.50;99.90
13049;DHT22;6591;51.446;5.404;2023-06-22T15:13:07;20.60;99.90
13049;DHT22;6591;51.446;5.404;2023-06-22T15:15:37;20.50;99.90
13049;DHT22;6591;51.446;5.404;2023-06-22T15:18:15;20.50;99.90
13049;DHT22;6591;51.446;5.404;2023-06-22T15:20:43;20.50;99.90
13049;DHT22;6591;51.446;5.404;2023-06-22T15:23:17;20.50;99.90
13049;DHT22;6591;51.446;5.404;2023-06-22T15:25:45;22.00;99.90
13049;DHT22;6591;51.446;5.404;2023-06-22T15:28:12;19.40;99.90
13049;DHT22;6591;51.446;5.404;2023-06-22T15:30:40;20.50;99.90
13049;DHT22;6591;51.446;5.404;2023-06-22T15:33:07;20.50;99.90
13049;DHT22;6591;51.446;5.404;2023-06-22T15:35:34;20.50;99.90
13049;DHT22;6591;51.446;5.404;2023-06-22T15:38:02;21.20;99.90
13049;DHT22;6591;51.446;5.404;2023-06-22T15:40:29;21.10;99.90
13049;DHT22;6591;51.446;5.404;2023-06-22T15:42:57;20.50;99.90
13049;DHT22;6591;51.446;5.404;2023-06-22T15:45:25;20.70;99.90
13049;DHT22;6591;51.446;5.404;2023-06-22T15:47:52;20.70;99.90
13049;DHT22;6591;51.446;5.404;2023-06-22T15:50:19;20.40;99.90
13049;DHT22;6591;51.446;5.404;2023-06-22T15:52:47;20.40;99.90
13049;DHT22;6591;51.446;5.404;2023-06-22T15:55:18;20.70;99.90
13049;DHT22;6591;51.446;5.404;2023-06-22T15:57:46;22.10;99.90
13049;DHT22;6591;51.446;5.404;2023-06-22T16:00:15;20.40;99.90